createdAt,value
2018-02-05T00:00:32.993Z,10.50
2018-02-05T00:03:00.466Z,9.93
2018-02-05T00:05:28.689Z,12.23
2018-02-05T00:07:56.170Z,9.00
2018-02-05T00:10:23.646Z,10.80
2018-02-05T00:12:51.878Z,11.57
2018-02-05T00:15:19.413Z,10.70
2018-02-05T00:17:46.881Z,10.93
2018-02-05T00:20:14.366Z,11.13
2018-02-05T00:22:41.821Z,14.13
2018-02-05T00:25:09.281Z,10.37
2018-02-05T00:27:36.753Z,11.37
2018-02-05T00:30:04.206Z,11.77
2018-02-05T00:32:31.682Z,10.10
2018-02-05T00:34:59.974Z,9.57
2018-02-05T00:37:27.458Z,10.03
2018-02-05T00:39:54.909Z,11.27
2018-02-05T00:42:22.407Z,9.87
2018-02-05T00:44:49.890Z,11.67
2018-02-05T00:47:17.354Z,11.20
2018-02-05T00:49:44.801Z,11.10
2018-02-05T00:52:12.275Z,11.73
2018-02-05T00:54:39.728Z,12.43
2018-02-05T00:57:07.983Z,12.10
2018-02-05T00:59:35.434Z,10.90
2018-02-05T01:02:02.922Z,11.50
2018-02-05T01:04:30.382Z,13.17
2018-02-05T01:06:57.854Z,13.40
2018-02-05T01:09:25.341Z,14.20
2018-02-05T01:11:54.302Z,14.67
2018-02-05T01:14:21.799Z,15.50
2018-02-05T01:16:49.243Z,15.57
2018-02-05T01:19:16.730Z,15.77
2018-02-05T01:21:44.193Z,15.03
2018-02-05T01:24:11.650Z,15.27
2018-02-05T01:26:39.133Z,15.50
2018-02-05T01:29:06.579Z,15.93
2018-02-05T01:31:34.058Z,13.90
2018-02-05T01:34:01.521Z,12.37
2018-02-05T01:36:28.973Z,13.80
2018-02-05T01:38:56.447Z,14.37
2018-02-05T01:41:24.673Z,13.30
2018-02-05T01:43:52.142Z,14.00
2018-02-05T01:46:19.602Z,15.03
2018-02-05T01:48:47.092Z,14.20
2018-02-05T01:51:14.590Z,14.67
2018-02-05T01:53:42.805Z,13.70
2018-02-05T01:56:10.286Z,15.20
2018-02-05T01:58:37.775Z,13.47
2018-02-05T02:01:05.250Z,14.60
2018-02-05T02:03:33.471Z,17.13
2018-02-05T02:06:00.966Z,17.23
2018-02-05T02:08:28.469Z,16.50
2018-02-05T02:10:55.925Z,17.17
2018-02-05T02:13:23.396Z,14.70
2018-02-05T02:15:50.886Z,16.67
2018-02-05T02:18:18.350Z,17.50
2018-02-05T02:20:45.805Z,14.23
2018-02-05T02:23:13.290Z,17.63
2018-02-05T02:25:40.798Z,22.97
2018-02-05T02:28:08.245Z,17.60
2018-02-05T02:30:35.705Z,17.13
2018-02-05T02:33:03.190Z,14.93
2018-02-05T02:35:30.650Z,17.77
2018-02-05T02:37:58.134Z,15.87
2018-02-05T02:40:25.586Z,18.97
2018-02-05T02:42:53.805Z,14.53
2018-02-05T02:45:22.071Z,19.33
2018-02-05T02:47:49.527Z,19.07
2018-02-05T02:50:17.017Z,18.97
2018-02-05T02:52:44.466Z,21.13
2018-02-05T02:55:11.929Z,19.47
2018-02-05T02:57:39.406Z,20.13
2018-02-05T03:00:07.661Z,18.40
2018-02-05T03:02:35.114Z,20.57
2018-02-05T03:05:02.595Z,15.60
2018-02-05T03:07:30.818Z,16.53
2018-02-05T03:09:58.293Z,17.60
2018-02-05T03:12:25.742Z,18.03
2018-02-05T03:14:53.243Z,17.17
2018-02-05T03:17:21.490Z,20.10
2018-02-05T03:19:48.939Z,16.67
2018-02-05T03:22:16.437Z,19.80
2018-02-05T03:24:44.642Z,16.50
2018-02-05T03:27:12.187Z,17.10
2018-02-05T03:29:39.643Z,17.47
2018-02-05T03:32:07.110Z,16.13
2018-02-05T03:34:34.559Z,18.47
2018-02-05T03:37:02.027Z,20.43
2018-02-05T03:39:29.516Z,19.77
2018-02-05T03:41:56.979Z,18.00
2018-02-05T03:44:24.414Z,19.20
2018-02-05T03:46:51.875Z,17.53
2018-02-05T03:49:19.310Z,16.43
2018-02-05T03:51:46.766Z,19.03
2018-02-05T03:54:14.226Z,17.10
2018-02-05T03:56:41.675Z,18.50
2018-02-05T03:59:09.131Z,16.77
2018-02-05T04:01:36.587Z,17.70
2018-02-05T04:04:04.046Z,22.23
2018-02-05T04:06:31.504Z,19.30
2018-02-05T04:08:58.946Z,17.83
2018-02-05T04:11:26.389Z,18.73
2018-02-05T04:13:54.627Z,17.13
2018-02-05T04:16:22.075Z,19.33
2018-02-05T04:18:49.523Z,21.07
2018-02-05T04:21:16.991Z,20.13
2018-02-05T04:23:44.438Z,16.47
2018-02-05T04:26:11.878Z,18.40
2018-02-05T04:28:39.350Z,17.40
2018-02-05T04:31:06.786Z,17.27
2018-02-05T04:33:34.227Z,22.10
2018-02-05T04:36:01.683Z,21.10
2018-02-05T04:38:29.123Z,19.23
2018-02-05T04:40:56.601Z,22.10
2018-02-05T04:43:24.074Z,23.27
2018-02-05T04:45:51.514Z,18.93
2018-02-05T04:48:18.947Z,16.10
2018-02-05T04:50:47.194Z,19.37
2018-02-05T04:53:14.651Z,19.80
2018-02-05T04:55:42.210Z,16.63
2018-02-05T04:58:09.642Z,18.67
2018-02-05T05:00:37.100Z,23.77
2018-02-05T05:03:04.558Z,22.37
2018-02-05T05:05:32.040Z,19.40
2018-02-05T05:07:59.483Z,20.53
2018-02-05T05:10:26.947Z,18.63
2018-02-05T05:12:54.466Z,17.40
2018-02-05T05:15:22.039Z,19.27
2018-02-05T05:17:49.501Z,25.43
2018-02-05T05:20:16.950Z,24.07
2018-02-05T05:22:44.422Z,21.90
2018-02-05T05:25:11.865Z,21.43
2018-02-05T05:27:39.350Z,22.97
2018-02-05T05:30:06.806Z,22.53
2018-02-05T05:32:34.330Z,25.37
2018-02-05T05:35:01.807Z,24.90
2018-02-05T05:37:29.254Z,24.53
2018-02-05T05:39:56.727Z,25.20
2018-02-05T05:42:26.742Z,26.40
2018-02-05T05:44:54.971Z,24.13
2018-02-05T05:47:22.410Z,25.10
2018-02-05T05:49:49.884Z,27.23
2018-02-05T05:52:17.334Z,27.20
2018-02-05T05:54:45.546Z,25.40
2018-02-05T05:57:12.998Z,30.57
2018-02-05T05:59:40.444Z,27.23
2018-02-05T06:02:07.912Z,26.87
2018-02-05T06:04:35.355Z,28.00
2018-02-05T06:07:02.827Z,31.40
2018-02-05T06:09:30.282Z,24.77
2018-02-05T06:11:57.739Z,29.80
2018-02-05T06:14:25.193Z,21.07
2018-02-05T06:16:52.658Z,22.00
2018-02-05T06:19:20.122Z,24.43
2018-02-05T06:21:47.578Z,19.53
2018-02-05T06:24:15.027Z,25.07
2018-02-05T06:26:42.482Z,15.33
2018-02-05T06:29:09.951Z,16.83
2018-02-05T06:31:37.407Z,17.80
2018-02-05T06:34:04.894Z,13.93
2018-02-05T06:36:32.385Z,17.77
2018-02-05T06:38:59.849Z,15.33
2018-02-05T06:41:27.301Z,17.10
2018-02-05T06:43:54.805Z,17.43
2018-02-05T06:46:23.032Z,14.80
2018-02-05T06:48:51.281Z,15.23
2018-02-05T06:51:30.526Z,13.13
2018-02-05T06:57:11.129Z,13.33
2018-02-05T06:59:39.351Z,14.27
2018-02-05T07:02:06.809Z,16.20
2018-02-05T07:04:35.077Z,16.90
2018-02-05T07:07:02.554Z,17.90
2018-02-05T07:09:30.035Z,16.00
2018-02-05T07:11:58.255Z,18.47
2018-02-05T07:14:25.717Z,18.90
2018-02-05T07:16:53.195Z,19.03
2018-02-05T07:19:20.678Z,23.50
2018-02-05T07:21:48.910Z,17.10
2018-02-05T07:24:16.410Z,23.77
2018-02-05T07:26:43.932Z,22.47
2018-02-05T07:29:11.390Z,24.00
2018-02-05T07:31:38.921Z,26.17
2018-02-05T07:34:06.381Z,26.13
2018-02-05T07:36:33.849Z,35.80
2018-02-05T07:39:01.436Z,26.23
2018-02-05T07:41:28.919Z,29.03
2018-02-05T07:43:56.382Z,29.43
2018-02-05T07:46:23.919Z,25.73
2018-02-05T07:48:51.373Z,26.07
2018-02-05T07:51:18.845Z,34.37
2018-02-05T07:53:46.321Z,25.00
2018-02-05T07:56:14.554Z,26.83
2018-02-05T07:58:42.022Z,28.20
2018-02-05T08:01:09.514Z,26.60
2018-02-05T08:03:36.985Z,21.03
2018-02-05T08:06:04.435Z,25.80
2018-02-05T08:08:31.922Z,26.30
2018-02-05T08:10:59.386Z,20.93
2018-02-05T08:13:26.912Z,21.37
2018-02-05T08:15:54.374Z,21.10
2018-02-05T08:18:21.862Z,23.60
2018-02-05T08:20:49.373Z,21.37
2018-02-05T08:23:17.591Z,21.60
2018-02-05T08:25:45.050Z,21.17
2018-02-05T08:28:12.515Z,18.70
2018-02-05T08:30:39.970Z,18.83
2018-02-05T08:33:07.454Z,19.73
2018-02-05T08:35:35.669Z,22.27
2018-02-05T08:38:03.158Z,19.03
2018-02-05T08:40:30.619Z,18.10
2018-02-05T08:42:58.094Z,16.93
2018-02-05T08:45:25.597Z,16.10
2018-02-05T08:47:53.053Z,14.87
2018-02-05T08:50:20.508Z,13.53
2018-02-05T08:52:47.970Z,12.43
2018-02-05T08:55:15.418Z,12.20
2018-02-05T08:57:42.911Z,10.23
2018-02-05T09:00:11.125Z,12.23
2018-02-05T09:02:38.600Z,11.50
2018-02-05T09:05:06.082Z,17.93
2018-02-05T09:07:33.533Z,13.87
2018-02-05T09:10:01.021Z,13.57
2018-02-05T09:12:28.496Z,12.87
2018-02-05T09:14:55.978Z,10.67
2018-02-05T09:17:24.192Z,14.63
2018-02-05T09:19:51.639Z,13.40
2018-02-05T09:22:19.125Z,15.30
2018-02-05T09:24:46.561Z,11.77
2018-02-05T09:27:14.142Z,13.57
2018-02-05T09:29:41.608Z,10.70
2018-02-05T09:32:09.073Z,10.00
2018-02-05T09:34:36.542Z,11.37
2018-02-05T09:37:04.777Z,11.83
2018-02-05T09:39:32.232Z,11.87
2018-02-05T09:41:59.726Z,10.93
2018-02-05T09:44:27.251Z,11.13
2018-02-05T09:46:54.662Z,11.40
2018-02-05T09:49:22.152Z,12.73
2018-02-05T09:51:49.602Z,15.17
2018-02-05T09:54:17.079Z,11.87
2018-02-05T09:56:44.534Z,16.20
2018-02-05T09:59:12.014Z,12.63
2018-02-05T10:01:39.474Z,14.73
2018-02-05T10:04:06.938Z,19.10
2018-02-05T10:06:34.397Z,17.53
2018-02-05T10:09:01.898Z,17.90
2018-02-05T10:11:29.350Z,14.47
2018-02-05T10:13:56.806Z,14.97
2018-02-05T10:16:24.285Z,14.53
2018-02-05T10:18:51.782Z,11.57
2018-02-05T10:21:20.003Z,12.23
2018-02-05T10:23:47.453Z,9.73
2018-02-05T10:26:15.034Z,9.37
2018-02-05T10:28:42.498Z,10.77
2018-02-05T10:31:09.996Z,13.00
2018-02-05T10:33:37.441Z,13.20
2018-02-05T10:36:04.918Z,12.27
2018-02-05T10:38:33.137Z,11.40
2018-02-05T10:41:00.621Z,10.03
2018-02-05T10:43:28.065Z,10.13
2018-02-05T10:45:55.541Z,15.27
2018-02-05T10:48:23.025Z,12.60
2018-02-05T10:50:50.482Z,10.27
2018-02-05T10:53:17.966Z,12.83
2018-02-05T10:55:45.422Z,10.90
2018-02-05T10:58:12.910Z,13.90
2018-02-05T11:00:40.362Z,12.03
2018-02-05T11:03:07.854Z,14.90
2018-02-05T11:05:36.086Z,13.87
2018-02-05T11:08:03.593Z,12.40
2018-02-05T11:10:31.810Z,12.13
2018-02-05T11:12:59.276Z,11.40
2018-02-05T11:15:26.769Z,11.07
2018-02-05T11:17:54.988Z,12.57
2018-02-05T11:20:22.445Z,14.90
2018-02-05T11:22:50.211Z,14.83
2018-02-05T11:25:17.666Z,12.20
2018-02-05T11:27:45.142Z,13.07
2018-02-05T11:30:12.592Z,12.43
2018-02-05T11:32:40.045Z,11.77
2018-02-05T11:35:07.534Z,11.40
2018-02-05T11:37:35.000Z,44.20
2018-02-05T11:40:02.476Z,12.63
2018-02-05T11:42:29.934Z,13.63
2018-02-05T11:44:57.426Z,11.97
2018-02-05T11:47:24.895Z,11.27
2018-02-05T11:49:52.354Z,14.67
2018-02-05T11:52:19.821Z,10.43
2018-02-05T11:54:47.285Z,11.27
2018-02-05T11:57:14.867Z,10.27
2018-02-05T11:59:42.314Z,10.77
2018-02-05T12:02:09.789Z,9.73
2018-02-05T12:04:37.290Z,7.67
2018-02-05T12:07:04.761Z,9.13
2018-02-05T12:09:32.235Z,9.83
2018-02-05T12:11:59.697Z,6.80
2018-02-05T12:14:27.306Z,5.73
2018-02-05T12:16:54.769Z,5.97
2018-02-05T12:19:22.242Z,7.07
2018-02-05T12:21:49.706Z,7.10
2018-02-05T12:24:17.161Z,7.90
2018-02-05T12:26:44.637Z,6.00
2018-02-05T12:29:12.130Z,5.93
2018-02-05T12:31:40.369Z,7.27
2018-02-05T12:34:07.835Z,8.03
2018-02-05T12:36:35.328Z,6.83
2018-02-05T12:39:03.598Z,6.70
2018-02-05T12:41:31.074Z,5.83
2018-02-05T12:43:58.542Z,6.43
2018-02-05T12:46:26.018Z,6.87
2018-02-05T12:48:53.481Z,9.30
2018-02-05T12:51:20.987Z,8.93
2018-02-05T12:53:48.446Z,7.53
2018-02-05T12:56:15.899Z,7.87
2018-02-05T12:58:43.386Z,6.07
2018-02-05T13:01:25.730Z,7.00
2018-02-05T13:03:58.966Z,7.93
2018-02-05T13:06:44.651Z,6.43
2018-02-05T13:09:12.130Z,8.73
2018-02-05T13:11:39.577Z,9.87
2018-02-05T13:14:07.050Z,5.83
2018-02-05T13:16:35.326Z,6.03
2018-02-05T13:19:02.786Z,8.87
2018-02-05T13:21:30.283Z,9.03
2018-02-05T13:23:57.721Z,10.50
2018-02-05T13:26:25.170Z,6.23
2018-02-05T13:28:52.650Z,12.57
2018-02-05T13:31:20.890Z,11.90
2018-02-05T13:33:49.134Z,10.37
2018-02-05T13:36:16.639Z,16.63
2018-02-05T13:38:44.081Z,10.47
2018-02-05T13:41:11.529Z,8.47
2018-02-05T13:43:39.007Z,13.90
2018-02-05T13:46:06.457Z,10.30
2018-02-05T13:48:33.929Z,10.23
2018-02-05T13:51:01.460Z,10.90
2018-02-05T13:53:28.913Z,12.60
2018-02-05T13:55:56.373Z,12.37
2018-02-05T13:58:23.846Z,14.27
2018-02-05T14:00:51.363Z,11.43
2018-02-05T14:03:18.794Z,10.37
2018-02-05T14:05:46.249Z,10.00
2018-02-05T14:08:14.459Z,6.00
2018-02-05T14:10:41.949Z,6.87
2018-02-05T14:13:09.406Z,10.43
2018-02-05T14:15:36.867Z,6.63
2018-02-05T14:18:04.356Z,5.77
2018-02-05T14:20:32.639Z,6.90
2018-02-05T14:23:00.091Z,6.30
2018-02-05T14:25:28.342Z,9.17
2018-02-05T14:27:55.785Z,6.97
2018-02-05T14:30:23.246Z,7.27
2018-02-05T14:32:50.737Z,5.87
2018-02-05T14:35:18.201Z,6.83
2018-02-05T14:37:45.687Z,11.57
2018-02-05T14:40:13.270Z,12.07
2018-02-05T14:42:40.721Z,9.77
2018-02-05T14:45:08.194Z,8.53
2018-02-05T14:47:35.683Z,11.60
2018-02-05T14:50:03.138Z,11.03
2018-02-05T14:52:31.365Z,10.90
2018-02-05T14:54:58.835Z,8.47
2018-02-05T14:57:26.299Z,11.40
2018-02-05T14:59:53.758Z,11.90
2018-02-05T15:02:21.237Z,12.90
2018-02-05T15:04:48.748Z,9.00
2018-02-05T15:07:16.215Z,9.27
2018-02-05T15:09:43.717Z,10.13
2018-02-05T15:12:11.169Z,6.43
2018-02-05T15:14:39.385Z,10.00
2018-02-05T15:17:06.879Z,9.13
2018-02-05T15:19:34.323Z,8.33
2018-02-05T15:22:01.778Z,10.47
2018-02-05T15:24:29.260Z,6.20
2018-02-05T15:26:56.699Z,6.77
2018-02-05T15:29:24.166Z,6.23
2018-02-05T15:31:52.426Z,8.07
2018-02-05T15:34:19.861Z,6.10
2018-02-05T15:36:47.318Z,6.57
2018-02-05T15:39:14.858Z,6.50
2018-02-05T15:41:42.351Z,4.37
2018-02-05T15:44:09.790Z,5.53
2018-02-05T15:46:37.269Z,4.93
2018-02-05T15:49:04.742Z,8.57
2018-02-05T15:51:32.224Z,9.80
2018-02-05T15:53:59.661Z,7.30
2018-02-05T15:56:27.138Z,7.40
2018-02-05T15:58:54.609Z,9.23
2018-02-05T16:01:22.105Z,8.20
2018-02-05T16:03:49.549Z,8.33
2018-02-05T16:06:17.006Z,11.97
2018-02-05T16:08:44.489Z,12.50
2018-02-05T16:11:11.973Z,8.30
2018-02-05T16:13:40.186Z,9.07
2018-02-05T16:16:07.674Z,9.57
2018-02-05T16:18:35.142Z,11.93
2018-02-05T16:21:02.600Z,12.53
2018-02-05T16:23:30.086Z,9.47
2018-02-05T16:25:57.601Z,9.50
2018-02-05T16:28:24.989Z,10.27
2018-02-05T16:30:52.506Z,10.40
2018-02-05T16:33:19.983Z,9.30
2018-02-05T16:35:47.485Z,10.23
2018-02-05T16:38:15.008Z,11.40
2018-02-05T16:40:43.222Z,10.20
2018-02-05T16:43:10.710Z,11.50
2018-02-05T16:45:38.174Z,12.57
2018-02-05T16:48:05.649Z,11.07
2018-02-05T16:50:33.877Z,13.60
2018-02-05T16:53:01.361Z,11.93
2018-02-05T16:55:28.822Z,16.57
2018-02-05T16:57:56.297Z,10.00
2018-02-05T17:00:24.533Z,10.60
2018-02-05T17:02:51.991Z,13.33
2018-02-05T17:05:19.471Z,10.23
2018-02-05T17:07:46.929Z,10.10
2018-02-05T17:10:14.426Z,10.17
2018-02-05T17:12:41.922Z,12.67
2018-02-05T17:15:09.398Z,12.10
2018-02-05T17:17:36.886Z,15.97
2018-02-05T17:20:04.338Z,14.50
2018-02-05T17:22:31.827Z,14.07
2018-02-05T17:24:59.266Z,11.87
2018-02-05T17:27:26.721Z,13.03
2018-02-05T17:29:54.235Z,13.17
2018-02-05T17:32:21.704Z,14.20
2018-02-05T17:34:49.190Z,11.97
2018-02-05T17:37:17.414Z,13.70
2018-02-05T17:39:45.661Z,12.43
2018-02-05T17:42:13.118Z,13.23
2018-02-05T17:44:40.573Z,12.80
2018-02-05T17:47:08.058Z,11.50
2018-02-05T17:49:35.510Z,15.93
2018-02-05T17:52:03.198Z,14.43
2018-02-05T17:54:31.430Z,9.90
2018-02-05T17:56:58.890Z,14.40
2018-02-05T17:59:26.365Z,12.70
2018-02-05T18:01:54.618Z,13.13
2018-02-05T18:04:22.074Z,13.73
2018-02-05T18:06:49.550Z,11.50
2018-02-05T18:09:17.020Z,12.63
2018-02-05T18:11:44.470Z,11.37
2018-02-05T18:14:11.967Z,12.47
2018-02-05T18:16:40.202Z,13.57
2018-02-05T18:19:07.740Z,11.67
2018-02-05T18:21:36.050Z,12.33
2018-02-05T18:24:04.453Z,13.60
2018-02-05T18:26:32.690Z,13.37
2018-02-05T18:29:00.182Z,11.60
2018-02-05T18:31:28.430Z,12.63
2018-02-05T18:33:55.890Z,12.73
2018-02-05T18:36:24.134Z,15.33
2018-02-05T18:38:51.619Z,15.63
2018-02-05T18:41:19.062Z,13.37
2018-02-05T18:43:46.513Z,12.57
2018-02-05T18:46:13.982Z,13.90
2018-02-05T18:48:41.438Z,12.27
2018-02-05T18:51:08.934Z,15.00
2018-02-05T18:53:37.175Z,13.10
2018-02-05T18:56:04.632Z,14.93
2018-02-05T18:58:32.125Z,13.23
2018-02-05T19:00:59.585Z,13.47
2018-02-05T19:03:27.812Z,15.03
2018-02-05T19:05:55.281Z,15.73
2018-02-05T19:08:22.734Z,14.03
2018-02-05T19:10:50.205Z,15.73
2018-02-05T19:13:17.662Z,19.30
2018-02-05T19:15:45.150Z,15.80
2018-02-05T19:18:13.395Z,17.63
2018-02-05T19:20:40.895Z,17.73
2018-02-05T19:23:08.366Z,16.17
2018-02-05T19:25:35.823Z,13.67
2018-02-05T19:28:04.080Z,19.13
2018-02-05T19:30:32.294Z,15.43
2018-02-05T19:32:59.765Z,16.30
2018-02-05T19:35:27.225Z,13.90
2018-02-05T19:37:54.712Z,15.23
2018-02-05T19:40:22.954Z,15.10
2018-02-05T19:42:50.406Z,17.17
2018-02-05T19:45:17.891Z,16.90
2018-02-05T19:47:45.350Z,15.17
2018-02-05T19:50:12.817Z,16.93
2018-02-05T19:52:40.287Z,16.87
2018-02-05T19:55:07.797Z,13.50
2018-02-05T19:57:35.245Z,18.87
2018-02-05T20:00:02.717Z,16.73
2018-02-05T20:02:30.195Z,16.03
2018-02-05T20:04:57.675Z,18.80
2018-02-05T20:07:25.153Z,20.30
2018-02-05T20:09:52.638Z,18.33
2018-02-05T20:12:20.142Z,19.13
2018-02-05T20:14:48.375Z,21.37
2018-02-05T20:17:15.849Z,19.67
2018-02-05T20:19:43.338Z,24.57
2018-02-05T20:22:11.578Z,22.27
2018-02-05T20:24:39.035Z,23.77
2018-02-05T20:27:06.525Z,21.43
2018-02-05T20:29:34.762Z,25.60
2018-02-05T20:32:02.221Z,19.20
2018-02-05T20:34:29.706Z,28.30
2018-02-05T20:36:57.206Z,21.70
2018-02-05T20:39:24.671Z,22.23
2018-02-05T20:41:52.143Z,25.50
2018-02-05T20:44:19.610Z,24.23
2018-02-05T20:46:47.071Z,24.30
2018-02-05T20:49:14.548Z,26.27
2018-02-05T20:51:42.021Z,22.77
2018-02-05T20:54:10.249Z,25.53
2018-02-05T20:56:37.730Z,29.23
2018-02-05T20:59:05.223Z,25.20
2018-02-05T21:01:33.472Z,23.60
2018-02-05T21:04:00.953Z,22.27
2018-02-05T21:06:29.178Z,23.30
2018-02-05T21:08:56.664Z,24.10
2018-02-05T21:11:24.143Z,24.70
2018-02-05T21:13:52.458Z,21.83
2018-02-05T21:16:19.934Z,21.23
2018-02-05T21:18:47.408Z,24.50
2018-02-05T21:21:14.867Z,21.10
2018-02-05T21:23:42.357Z,19.93
2018-02-05T21:26:09.818Z,22.53
2018-02-05T21:28:37.286Z,21.57
2018-02-05T21:31:04.764Z,22.07
2018-02-05T21:33:32.234Z,27.77
2018-02-05T21:35:59.745Z,24.70
2018-02-05T21:38:28.040Z,26.67
2018-02-05T21:40:55.509Z,25.47
2018-02-05T21:43:22.986Z,27.97
2018-02-05T21:45:50.494Z,26.07
2018-02-05T21:48:17.945Z,28.83
2018-02-05T21:50:45.407Z,30.50
2018-02-05T21:53:13.642Z,26.67
2018-02-05T21:55:41.126Z,25.50
2018-02-05T21:58:08.597Z,29.60
2018-02-05T22:00:36.055Z,23.53
2018-02-05T22:03:04.341Z,30.53
2018-02-05T22:05:31.785Z,25.23
2018-02-05T22:07:59.243Z,27.93
2018-02-05T22:10:26.725Z,27.20
2018-02-05T22:12:54.185Z,24.57
2018-02-05T22:15:21.688Z,25.63
2018-02-05T22:17:49.149Z,29.30
2018-02-05T22:20:16.610Z,26.23
2018-02-05T22:22:44.865Z,27.00
2018-02-05T22:25:12.335Z,27.57
2018-02-05T22:27:39.818Z,24.73
2018-02-05T22:30:08.049Z,28.63
2018-02-05T22:32:35.550Z,31.53
2018-02-05T22:35:03.026Z,28.70
2018-02-05T22:37:30.493Z,33.47
2018-02-05T22:39:57.969Z,29.10
2018-02-05T22:42:25.466Z,33.53
2018-02-05T22:44:53.710Z,34.03
2018-02-05T22:47:21.182Z,29.23
2018-02-05T22:49:48.673Z,27.33
2018-02-05T22:52:16.134Z,26.17
2018-02-05T22:54:43.694Z,25.97
2018-02-05T22:57:11.153Z,28.27
2018-02-05T22:59:38.645Z,27.03
2018-02-05T23:02:06.113Z,29.77
2018-02-05T23:04:33.586Z,28.00
2018-02-05T23:07:01.045Z,26.93
2018-02-05T23:09:28.537Z,31.07
2018-02-05T23:11:55.998Z,27.87
2018-02-05T23:14:23.470Z,31.30
2018-02-05T23:16:50.956Z,27.10
2018-02-05T23:19:18.436Z,28.23
2018-02-05T23:21:45.932Z,28.20
2018-02-05T23:24:13.423Z,27.03
2018-02-05T23:26:40.871Z,27.63
2018-02-05T23:29:08.351Z,27.10
2018-02-05T23:31:35.815Z,30.50
2018-02-05T23:34:03.302Z,34.87
2018-02-05T23:36:30.741Z,31.77
2018-02-05T23:38:59.003Z,29.00
2018-02-05T23:41:26.479Z,27.60
2018-02-05T23:43:54.726Z,29.57
2018-02-05T23:46:22.209Z,26.90
2018-02-05T23:48:49.671Z,26.93
2018-02-05T23:51:17.134Z,29.53
2018-02-05T23:53:44.590Z,34.47
2018-02-05T23:56:12.853Z,30.43
2018-02-05T23:58:40.316Z,25.20
